sensor_id;sensor_type;location;lat;lon;timestamp;P1;durP1;ratioP1;P2;durP2;ratioP2
50281;SDS011;36176;51.506;10.272;2024-01-15T00:01:04;14.13;;;11.73;;
50281;SDS011;36176;51.506;10.272;2024-01-15T00:03:32;14.73;;;12.23;;
50281;SDS011;36176;51.506;10.272;2024-01-15T00:05:59;15.00;;;12.77;;
50281;SDS011;36176;51.506;10.272;2024-01-15T00:08:26;14.10;;;12.37;;
50281;SDS011;36176;51.506;10.272;2024-01-15T00:10:53;13.70;;;12.03;;
50281;SDS011;36176;51.506;10.272;2024-01-15T00:13:21;14.83;;;12.70;;
50281;SDS011;36176;51.506;10.272;2024-01-15T00:15:48;13.80;;;12.13;;
50281;SDS011;36176;51.506;10.272;2024-01-15T00:18:15;14.07;;;12.50;;
50281;SDS011;36176;51.506;10.272;2024-01-15T00:20:42;13.50;;;11.73;;
50281;SDS011;36176;51.506;10.272;2024-01-15T00:23:10;15.27;;;12.30;;
50281;SDS011;36176;51.506;10.272;2024-01-15T00:25:37;13.90;;;11.73;;
50281;SDS011;36176;51.506;10.272;2024-01-15T00:28:07;13.17;;;10.87;;
50281;SDS011;36176;51.506;10.272;2024-01-15T00:30:34;12.73;;;11.33;;
50281;SDS011;36176;51.506;10.272;2024-01-15T00:33:01;11.63;;;10.43;;
50281;SDS011;36176;51.506;10.272;2024-01-15T00:35:28;12.07;;;10.47;;
50281;SDS011;36176;51.506;10.272;2024-01-15T00:37:55;12.57;;;10.70;;
50281;SDS011;36176;51.506;10.272;2024-01-15T00:40:23;14.00;;;12.43;;
50281;SDS011;36176;51.506;10.272;2024-01-15T00:42:50;14.13;;;12.10;;
50281;SDS011;36176;51.506;10.272;2024-01-15T00:45:18;14.37;;;12.23;;
50281;SDS011;36176;51.506;10.272;2024-01-15T00:47:45;15.53;;;12.80;;
50281;SDS011;36176;51.506;10.272;2024-01-15T00:50:12;13.87;;;12.17;;
50281;SDS011;36176;51.506;10.272;2024-01-15T00:52:39;14.57;;;11.97;;
50281;SDS011;36176;51.506;10.272;2024-01-15T00:55:07;16.53;;;13.33;;
50281;SDS011;36176;51.506;10.272;2024-01-15T00:57:34;15.73;;;13.47;;
50281;SDS011;36176;51.506;10.272;2024-01-15T01:00:02;15.37;;;12.90;;
50281;SDS011;36176;51.506;10.272;2024-01-15T01:02:32;15.67;;;12.70;;
50281;SDS011;36176;51.506;10.272;2024-01-15T01:05:00;14.77;;;12.07;;
50281;SDS011;36176;51.506;10.272;2024-01-15T01:07:28;13.70;;;11.63;;
50281;SDS011;36176;51.506;10.272;2024-01-15T01:09:55;15.93;;;12.90;;
50281;SDS011;36176;51.506;10.272;2024-01-15T01:12:22;14.90;;;12.50;;
50281;SDS011;36176;51.506;10.272;2024-01-15T01:14:49;16.10;;;13.10;;
50281;SDS011;36176;51.506;10.272;2024-01-15T01:17:16;15.77;;;13.10;;
50281;SDS011;36176;51.506;10.272;2024-01-15T01:19:43;15.33;;;12.70;;
50281;SDS011;36176;51.506;10.272;2024-01-15T01:22:11;15.03;;;12.17;;
50281;SDS011;36176;51.506;10.272;2024-01-15T01:24:38;14.50;;;12.27;;
50281;SDS011;36176;51.506;10.272;2024-01-15T01:27:05;14.70;;;12.53;;
50281;SDS011;36176;51.506;10.272;2024-01-15T01:29:32;16.73;;;12.90;;
50281;SDS011;36176;51.506;10.272;2024-01-15T01:32:00;14.57;;;12.27;;
50281;SDS011;36176;51.506;10.272;2024-01-15T01:34:27;13.50;;;11.17;;
50281;SDS011;36176;51.506;10.272;2024-01-15T01:36:56;13.70;;;11.57;;
50281;SDS011;36176;51.506;10.272;2024-01-15T01:39:23;12.80;;;11.10;;
50281;SDS011;36176;51.506;10.272;2024-01-15T01:41:50;12.30;;;10.60;;
50281;SDS011;36176;51.506;10.272;2024-01-15T01:44:18;12.33;;;10.53;;
50281;SDS011;36176;51.506;10.272;2024-01-15T01:46:45;13.27;;;10.57;;
50281;SDS011;36176;51.506;10.272;2024-01-15T01:49:12;12.53;;;10.57;;
50281;SDS011;36176;51.506;10.272;2024-01-15T01:51:39;12.00;;;9.97;;
50281;SDS011;36176;51.506;10.272;2024-01-15T01:54:07;13.27;;;11.37;;
50281;SDS011;36176;51.506;10.272;2024-01-15T01:56:35;13.17;;;10.70;;
50281;SDS011;36176;51.506;10.272;2024-01-15T01:59:02;12.93;;;10.07;;
50281;SDS011;36176;51.506;10.272;2024-01-15T02:01:31;11.47;;;10.10;;
50281;SDS011;36176;51.506;10.272;2024-01-15T02:03:59;11.33;;;10.00;;
50281;SDS011;36176;51.506;10.272;2024-01-15T02:06:28;11.93;;;10.17;;
50281;SDS011;36176;51.506;10.272;2024-01-15T02:08:55;12.93;;;10.67;;
50281;SDS011;36176;51.506;10.272;2024-01-15T02:11:22;12.93;;;10.93;;
50281;SDS011;36176;51.506;10.272;2024-01-15T02:13:50;12.80;;;10.80;;
50281;SDS011;36176;51.506;10.272;2024-01-15T02:16:18;12.83;;;11.07;;
50281;SDS011;36176;51.506;10.272;2024-01-15T02:18:45;12.60;;;10.13;;
50281;SDS011;36176;51.506;10.272;2024-01-15T02:21:13;12.93;;;10.30;;
50281;SDS011;36176;51.506;10.272;2024-01-15T02:23:40;11.53;;;10.30;;
50281;SDS011;36176;51.506;10.272;2024-01-15T02:26:07;12.07;;;10.37;;
50281;SDS011;36176;51.506;10.272;2024-01-15T02:28:35;11.83;;;10.07;;
50281;SDS011;36176;51.506;10.272;2024-01-15T02:31:03;11.17;;;9.90;;
50281;SDS011;36176;51.506;10.272;2024-01-15T02:33:30;11.90;;;10.00;;
50281;SDS011;36176;51.506;10.272;2024-01-15T02:35:58;10.60;;;8.90;;
50281;SDS011;36176;51.506;10.272;2024-01-15T02:38:25;9.53;;;8.40;;
50281;SDS011;36176;51.506;10.272;2024-01-15T02:40:52;10.63;;;9.37;;
50281;SDS011;36176;51.506;10.272;2024-01-15T02:43:19;10.77;;;9.17;;
50281;SDS011;36176;51.506;10.272;2024-01-15T02:45:46;11.40;;;9.23;;
50281;SDS011;36176;51.506;10.272;2024-01-15T02:48:14;10.80;;;8.93;;
50281;SDS011;36176;51.506;10.272;2024-01-15T02:50:46;10.43;;;9.07;;
50281;SDS011;36176;51.506;10.272;2024-01-15T02:53:21;10.20;;;8.57;;
50281;SDS011;36176;51.506;10.272;2024-01-15T02:55:59;10.37;;;8.50;;
50281;SDS011;36176;51.506;10.272;2024-01-15T02:58:26;10.27;;;8.53;;
50281;SDS011;36176;51.506;10.272;2024-01-15T03:00:54;10.90;;;8.13;;
50281;SDS011;36176;51.506;10.272;2024-01-15T03:03:22;8.90;;;7.87;;
50281;SDS011;36176;51.506;10.272;2024-01-15T03:05:49;9.67;;;7.23;;
50281;SDS011;36176;51.506;10.272;2024-01-15T03:08:16;8.03;;;7.03;;
50281;SDS011;36176;51.506;10.272;2024-01-15T03:10:44;8.40;;;7.03;;
50281;SDS011;36176;51.506;10.272;2024-01-15T03:13:11;7.97;;;7.10;;
50281;SDS011;36176;51.506;10.272;2024-01-15T03:15:39;8.77;;;7.00;;
50281;SDS011;36176;51.506;10.272;2024-01-15T03:18:06;6.87;;;6.17;;
50281;SDS011;36176;51.506;10.272;2024-01-15T03:20:33;7.70;;;6.40;;
50281;SDS011;36176;51.506;10.272;2024-01-15T03:23:00;7.63;;;6.03;;
50281;SDS011;36176;51.506;10.272;2024-01-15T03:25:27;7.40;;;5.83;;
50281;SDS011;36176;51.506;10.272;2024-01-15T03:27:55;7.50;;;5.70;;
50281;SDS011;36176;51.506;10.272;2024-01-15T03:30:22;5.63;;;4.90;;
50281;SDS011;36176;51.506;10.272;2024-01-15T03:32:49;7.23;;;4.77;;
50281;SDS011;36176;51.506;10.272;2024-01-15T03:35:16;6.70;;;5.00;;
50281;SDS011;36176;51.506;10.272;2024-01-15T03:37:44;6.20;;;5.20;;
50281;SDS011;36176;51.506;10.272;2024-01-15T03:40:11;5.67;;;4.60;;
50281;SDS011;36176;51.506;10.272;2024-01-15T03:42:39;6.93;;;4.63;;
50281;SDS011;36176;51.506;10.272;2024-01-15T03:45:06;7.83;;;5.40;;
50281;SDS011;36176;51.506;10.272;2024-01-15T03:47:33;7.77;;;6.23;;
50281;SDS011;36176;51.506;10.272;2024-01-15T03:50:01;7.67;;;6.07;;
50281;SDS011;36176;51.506;10.272;2024-01-15T03:52:28;7.17;;;6.27;;
50281;SDS011;36176;51.506;10.272;2024-01-15T03:54:55;7.70;;;6.57;;
50281;SDS011;36176;51.506;10.272;2024-01-15T03:57:22;9.27;;;6.67;;
50281;SDS011;36176;51.506;10.272;2024-01-15T03:59:51;10.33;;;6.97;;
50281;SDS011;36176;51.506;10.272;2024-01-15T04:02:19;9.73;;;7.17;;
50281;SDS011;36176;51.506;10.272;2024-01-15T04:04:46;8.80;;;6.90;;
50281;SDS011;36176;51.506;10.272;2024-01-15T04:07:14;7.37;;;6.40;;
50281;SDS011;36176;51.506;10.272;2024-01-15T04:09:41;8.43;;;6.33;;
50281;SDS011;36176;51.506;10.272;2024-01-15T04:12:09;8.77;;;6.37;;
50281;SDS011;36176;51.506;10.272;2024-01-15T04:14:36;9.07;;;6.57;;
50281;SDS011;36176;51.506;10.272;2024-01-15T04:17:03;7.90;;;6.50;;
50281;SDS011;36176;51.506;10.272;2024-01-15T04:19:30;9.03;;;6.30;;
50281;SDS011;36176;51.506;10.272;2024-01-15T04:21:57;10.90;;;6.83;;
50281;SDS011;36176;51.506;10.272;2024-01-15T04:24:25;9.70;;;6.77;;
50281;SDS011;36176;51.506;10.272;2024-01-15T04:26:52;9.30;;;5.90;;
50281;SDS011;36176;51.506;10.272;2024-01-15T04:29:22;8.37;;;5.90;;
50281;SDS011;36176;51.506;10.272;2024-01-15T04:31:49;8.63;;;6.10;;
50281;SDS011;36176;51.506;10.272;2024-01-15T04:34:16;9.13;;;6.53;;
50281;SDS011;36176;51.506;10.272;2024-01-15T04:36:43;10.77;;;6.53;;
50281;SDS011;36176;51.506;10.272;2024-01-15T04:39:10;8.13;;;6.50;;
50281;SDS011;36176;51.506;10.272;2024-01-15T04:41:37;8.63;;;6.60;;
50281;SDS011;36176;51.506;10.272;2024-01-15T04:44:04;9.13;;;6.40;;
50281;SDS011;36176;51.506;10.272;2024-01-15T04:46:31;8.33;;;6.60;;
50281;SDS011;36176;51.506;10.272;2024-01-15T04:48:59;8.27;;;6.20;;
50281;SDS011;36176;51.506;10.272;2024-01-15T04:51:26;9.27;;;6.57;;
50281;SDS011;36176;51.506;10.272;2024-01-15T04:53:53;8.87;;;6.60;;
50281;SDS011;36176;51.506;10.272;2024-01-15T04:56:20;8.57;;;6.50;;
50281;SDS011;36176;51.506;10.272;2024-01-15T04:58:47;9.10;;;5.93;;
50281;SDS011;36176;51.506;10.272;2024-01-15T05:01:15;8.57;;;6.17;;
50281;SDS011;36176;51.506;10.272;2024-01-15T05:03:43;9.33;;;6.70;;
50281;SDS011;36176;51.506;10.272;2024-01-15T05:06:10;8.20;;;6.30;;
50281;SDS011;36176;51.506;10.272;2024-01-15T05:08:37;8.00;;;6.30;;
50281;SDS011;36176;51.506;10.272;2024-01-15T05:11:04;9.40;;;6.47;;
50281;SDS011;36176;51.506;10.272;2024-01-15T05:13:31;8.00;;;6.03;;
50281;SDS011;36176;51.506;10.272;2024-01-15T05:15:59;8.67;;;6.37;;
50281;SDS011;36176;51.506;10.272;2024-01-15T05:18:26;8.83;;;6.20;;
50281;SDS011;36176;51.506;10.272;2024-01-15T05:20:54;11.47;;;7.63;;
50281;SDS011;36176;51.506;10.272;2024-01-15T05:23:21;10.63;;;6.93;;
50281;SDS011;36176;51.506;10.272;2024-01-15T05:25:48;9.70;;;6.03;;
50281;SDS011;36176;51.506;10.272;2024-01-15T05:28:16;9.93;;;6.40;;
50281;SDS011;36176;51.506;10.272;2024-01-15T05:30:43;11.00;;;6.07;;
50281;SDS011;36176;51.506;10.272;2024-01-15T05:33:10;7.77;;;5.93;;
50281;SDS011;36176;51.506;10.272;2024-01-15T05:35:38;9.13;;;6.30;;
50281;SDS011;36176;51.506;10.272;2024-01-15T05:38:05;8.97;;;6.70;;
50281;SDS011;36176;51.506;10.272;2024-01-15T05:40:34;9.50;;;6.20;;
50281;SDS011;36176;51.506;10.272;2024-01-15T05:43:01;8.87;;;6.10;;
50281;SDS011;36176;51.506;10.272;2024-01-15T05:45:29;8.87;;;6.37;;
50281;SDS011;36176;51.506;10.272;2024-01-15T05:47:57;8.40;;;6.43;;
50281;SDS011;36176;51.506;10.272;2024-01-15T05:50:25;8.43;;;6.13;;
50281;SDS011;36176;51.506;10.272;2024-01-15T05:52:52;8.23;;;6.50;;
50281;SDS011;36176;51.506;10.272;2024-01-15T05:55:19;9.13;;;6.07;;
50281;SDS011;36176;51.506;10.272;2024-01-15T05:57:46;10.03;;;6.53;;
50281;SDS011;36176;51.506;10.272;2024-01-15T06:00:14;9.87;;;6.40;;
50281;SDS011;36176;51.506;10.272;2024-01-15T06:02:44;11.10;;;6.30;;
50281;SDS011;36176;51.506;10.272;2024-01-15T06:05:12;10.27;;;6.50;;
50281;SDS011;36176;51.506;10.272;2024-01-15T06:07:39;8.53;;;5.97;;
50281;SDS011;36176;51.506;10.272;2024-01-15T06:10:07;10.37;;;6.20;;
50281;SDS011;36176;51.506;10.272;2024-01-15T06:12:34;11.07;;;7.40;;
50281;SDS011;36176;51.506;10.272;2024-01-15T06:15:01;10.20;;;6.87;;
50281;SDS011;36176;51.506;10.272;2024-01-15T06:17:29;10.13;;;7.37;;
50281;SDS011;36176;51.506;10.272;2024-01-15T06:19:56;9.47;;;7.03;;
50281;SDS011;36176;51.506;10.272;2024-01-15T06:22:23;11.03;;;7.10;;
50281;SDS011;36176;51.506;10.272;2024-01-15T06:24:50;9.00;;;7.00;;
50281;SDS011;36176;51.506;10.272;2024-01-15T06:27:17;11.33;;;7.17;;
50281;SDS011;36176;51.506;10.272;2024-01-15T06:29:52;8.53;;;6.90;;
50281;SDS011;36176;51.506;10.272;2024-01-15T06:32:19;9.67;;;6.97;;
50281;SDS011;36176;51.506;10.272;2024-01-15T06:34:46;8.17;;;6.70;;
50281;SDS011;36176;51.506;10.272;2024-01-15T06:37:15;9.83;;;6.70;;
50281;SDS011;36176;51.506;10.272;2024-01-15T06:39:43;11.47;;;6.80;;
50281;SDS011;36176;51.506;10.272;2024-01-15T06:42:10;8.93;;;6.40;;
50281;SDS011;36176;51.506;10.272;2024-01-15T06:44:38;9.73;;;6.90;;
50281;SDS011;36176;51.506;10.272;2024-01-15T06:47:05;9.30;;;6.47;;
50281;SDS011;36176;51.506;10.272;2024-01-15T06:49:32;8.87;;;6.20;;
50281;SDS011;36176;51.506;10.272;2024-01-15T06:51:59;7.93;;;6.27;;
50281;SDS011;36176;51.506;10.272;2024-01-15T06:54:27;9.00;;;6.77;;
50281;SDS011;36176;51.506;10.272;2024-01-15T06:56:54;9.10;;;6.90;;
50281;SDS011;36176;51.506;10.272;2024-01-15T06:59:21;8.93;;;7.13;;
50281;SDS011;36176;51.506;10.272;2024-01-15T07:01:48;9.97;;;7.43;;
50281;SDS011;36176;51.506;10.272;2024-01-15T07:04:15;8.80;;;6.90;;
50281;SDS011;36176;51.506;10.272;2024-01-15T07:06:43;7.83;;;6.73;;
50281;SDS011;36176;51.506;10.272;2024-01-15T07:09:10;11.33;;;7.70;;
50281;SDS011;36176;51.506;10.272;2024-01-15T07:11:38;9.00;;;6.70;;
50281;SDS011;36176;51.506;10.272;2024-01-15T07:14:10;8.60;;;6.60;;
50281;SDS011;36176;51.506;10.272;2024-01-15T07:16:37;10.30;;;6.80;;
50281;SDS011;36176;51.506;10.272;2024-01-15T07:19:06;7.43;;;6.03;;
50281;SDS011;36176;51.506;10.272;2024-01-15T07:21:33;10.43;;;7.40;;
50281;SDS011;36176;51.506;10.272;2024-01-15T07:24:01;7.13;;;6.23;;
50281;SDS011;36176;51.506;10.272;2024-01-15T07:26:29;8.27;;;6.23;;
50281;SDS011;36176;51.506;10.272;2024-01-15T07:28:58;9.60;;;6.40;;
50281;SDS011;36176;51.506;10.272;2024-01-15T07:31:26;8.60;;;6.60;;
50281;SDS011;36176;51.506;10.272;2024-01-15T07:33:55;8.87;;;6.67;;
50281;SDS011;36176;51.506;10.272;2024-01-15T07:36:22;8.70;;;6.30;;
50281;SDS011;36176;51.506;10.272;2024-01-15T07:38:49;8.57;;;6.47;;
50281;SDS011;36176;51.506;10.272;2024-01-15T07:41:17;8.63;;;6.90;;
50281;SDS011;36176;51.506;10.272;2024-01-15T07:43:44;9.83;;;6.80;;
50281;SDS011;36176;51.506;10.272;2024-01-15T07:46:11;9.83;;;6.80;;
50281;SDS011;36176;51.506;10.272;2024-01-15T07:48:38;9.60;;;6.70;;
50281;SDS011;36176;51.506;10.272;2024-01-15T07:51:06;10.10;;;7.50;;
50281;SDS011;36176;51.506;10.272;2024-01-15T07:53:33;8.53;;;7.10;;
50281;SDS011;36176;51.506;10.272;2024-01-15T07:56:00;9.40;;;7.80;;
50281;SDS011;36176;51.506;10.272;2024-01-15T07:58:27;9.43;;;6.90;;
50281;SDS011;36176;51.506;10.272;2024-01-15T08:00:55;9.37;;;7.17;;
50281;SDS011;36176;51.506;10.272;2024-01-15T08:03:23;10.30;;;7.23;;
50281;SDS011;36176;51.506;10.272;2024-01-15T08:05:50;11.23;;;7.83;;
50281;SDS011;36176;51.506;10.272;2024-01-15T08:08:20;11.33;;;8.33;;
50281;SDS011;36176;51.506;10.272;2024-01-15T08:10:49;14.03;;;8.53;;
50281;SDS011;36176;51.506;10.272;2024-01-15T08:13:22;10.77;;;7.47;;
50281;SDS011;36176;51.506;10.272;2024-01-15T08:15:53;11.37;;;7.57;;
50281;SDS011;36176;51.506;10.272;2024-01-15T08:18:21;9.67;;;7.17;;
50281;SDS011;36176;51.506;10.272;2024-01-15T08:20:51;10.97;;;7.40;;
50281;SDS011;36176;51.506;10.272;2024-01-15T08:23:19;8.50;;;6.63;;
50281;SDS011;36176;51.506;10.272;2024-01-15T08:25:46;7.93;;;6.83;;
50281;SDS011;36176;51.506;10.272;2024-01-15T08:28:14;12.03;;;8.30;;
50281;SDS011;36176;51.506;10.272;2024-01-15T08:30:41;9.73;;;6.67;;
50281;SDS011;36176;51.506;10.272;2024-01-15T08:33:08;9.23;;;6.60;;
50281;SDS011;36176;51.506;10.272;2024-01-15T08:35:47;9.23;;;6.97;;
50281;SDS011;36176;51.506;10.272;2024-01-15T08:38:14;10.30;;;7.50;;
50281;SDS011;36176;51.506;10.272;2024-01-15T08:40:42;14.23;;;9.87;;
50281;SDS011;36176;51.506;10.272;2024-01-15T08:43:09;19.57;;;13.63;;
50281;SDS011;36176;51.506;10.272;2024-01-15T08:45:36;13.77;;;9.30;;
50281;SDS011;36176;51.506;10.272;2024-01-15T08:48:04;17.23;;;11.83;;
50281;SDS011;36176;51.506;10.272;2024-01-15T08:50:32;16.43;;;10.40;;
50281;SDS011;36176;51.506;10.272;2024-01-15T08:53:05;18.67;;;12.00;;
50281;SDS011;36176;51.506;10.272;2024-01-15T08:55:32;22.40;;;14.40;;
50281;SDS011;36176;51.506;10.272;2024-01-15T08:58:04;26.93;;;16.20;;
50281;SDS011;36176;51.506;10.272;2024-01-15T09:00:32;27.70;;;15.60;;
50281;SDS011;36176;51.506;10.272;2024-01-15T09:03:00;23.13;;;14.87;;
50281;SDS011;36176;51.506;10.272;2024-01-15T09:05:28;19.53;;;10.93;;
50281;SDS011;36176;51.506;10.272;2024-01-15T09:07:55;17.10;;;10.80;;
50281;SDS011;36176;51.506;10.272;2024-01-15T09:10:23;14.77;;;9.93;;
50281;SDS011;36176;51.506;10.272;2024-01-15T09:12:53;14.43;;;10.50;;
50281;SDS011;36176;51.506;10.272;2024-01-15T09:15:33;14.77;;;9.63;;
50281;SDS011;36176;51.506;10.272;2024-01-15T09:18:03;15.27;;;10.40;;
50281;SDS011;36176;51.506;10.272;2024-01-15T09:20:36;11.93;;;9.60;;
50281;SDS011;36176;51.506;10.272;2024-01-15T09:23:03;13.73;;;9.27;;
50281;SDS011;36176;51.506;10.272;2024-01-15T09:25:30;14.77;;;9.77;;
50281;SDS011;36176;51.506;10.272;2024-01-15T09:28:00;13.13;;;8.73;;
50281;SDS011;36176;51.506;10.272;2024-01-15T09:31:14;13.07;;;8.70;;
50281;SDS011;36176;51.506;10.272;2024-01-15T09:34:44;12.13;;;8.20;;
50281;SDS011;36176;51.506;10.272;2024-01-15T09:37:23;15.10;;;9.60;;
50281;SDS011;36176;51.506;10.272;2024-01-15T09:40:12;12.43;;;8.20;;
50281;SDS011;36176;51.506;10.272;2024-01-15T09:42:43;12.57;;;8.20;;
50281;SDS011;36176;51.506;10.272;2024-01-15T09:45:11;11.87;;;8.33;;
50281;SDS011;36176;51.506;10.272;2024-01-15T09:47:40;12.57;;;8.23;;
50281;SDS011;36176;51.506;10.272;2024-01-15T09:50:11;10.17;;;8.10;;
50281;SDS011;36176;51.506;10.272;2024-01-15T09:52:40;10.13;;;7.90;;
50281;SDS011;36176;51.506;10.272;2024-01-15T09:55:09;11.67;;;8.37;;
50281;SDS011;36176;51.506;10.272;2024-01-15T09:57:37;12.93;;;8.63;;
50281;SDS011;36176;51.506;10.272;2024-01-15T10:00:06;13.07;;;8.73;;
50281;SDS011;36176;51.506;10.272;2024-01-15T10:02:34;14.30;;;9.03;;
50281;SDS011;36176;51.506;10.272;2024-01-15T10:05:02;13.33;;;9.30;;
50281;SDS011;36176;51.506;10.272;2024-01-15T10:07:30;13.40;;;9.87;;
50281;SDS011;36176;51.506;10.272;2024-01-15T10:10:02;12.70;;;8.87;;
50281;SDS011;36176;51.506;10.272;2024-01-15T10:12:29;12.10;;;8.67;;
50281;SDS011;36176;51.506;10.272;2024-01-15T10:14:57;12.90;;;9.47;;
50281;SDS011;36176;51.506;10.272;2024-01-15T10:17:24;12.70;;;9.50;;
50281;SDS011;36176;51.506;10.272;2024-01-15T10:19:51;10.53;;;8.47;;
50281;SDS011;36176;51.506;10.272;2024-01-15T10:22:19;13.17;;;9.07;;
50281;SDS011;36176;51.506;10.272;2024-01-15T10:24:46;11.33;;;8.57;;
50281;SDS011;36176;51.506;10.272;2024-01-15T10:27:13;10.43;;;8.63;;
50281;SDS011;36176;51.506;10.272;2024-01-15T10:29:41;11.43;;;8.93;;
50281;SDS011;36176;51.506;10.272;2024-01-15T10:32:09;11.57;;;8.67;;
50281;SDS011;36176;51.506;10.272;2024-01-15T10:34:40;10.10;;;8.30;;
50281;SDS011;36176;51.506;10.272;2024-01-15T10:37:09;9.27;;;7.50;;
50281;SDS011;36176;51.506;10.272;2024-01-15T10:39:38;10.37;;;7.30;;
50281;SDS011;36176;51.506;10.272;2024-01-15T10:42:05;7.90;;;6.80;;
50281;SDS011;36176;51.506;10.272;2024-01-15T10:44:34;7.83;;;6.70;;
50281;SDS011;36176;51.506;10.272;2024-01-15T10:47:02;7.23;;;6.17;;
50281;SDS011;36176;51.506;10.272;2024-01-15T10:49:31;6.67;;;5.80;;
50281;SDS011;36176;51.506;10.272;2024-01-15T10:52:01;8.90;;;6.27;;
50281;SDS011;36176;51.506;10.272;2024-01-15T10:54:29;7.47;;;6.47;;
50281;SDS011;36176;51.506;10.272;2024-01-15T10:56:57;6.90;;;6.00;;
50281;SDS011;36176;51.506;10.272;2024-01-15T10:59:24;7.53;;;6.30;;
50281;SDS011;36176;51.506;10.272;2024-01-15T11:01:52;8.80;;;6.60;;
50281;SDS011;36176;51.506;10.272;2024-01-15T11:04:22;8.13;;;6.50;;
50281;SDS011;36176;51.506;10.272;2024-01-15T11:06:52;9.70;;;7.20;;
50281;SDS011;36176;51.506;10.272;2024-01-15T11:09:22;6.60;;;5.90;;
50281;SDS011;36176;51.506;10.272;2024-01-15T11:11:52;10.23;;;7.40;;
50281;SDS011;36176;51.506;10.272;2024-01-15T11:14:34;8.60;;;6.83;;
50281;SDS011;36176;51.506;10.272;2024-01-15T11:17:08;9.13;;;6.43;;
50281;SDS011;36176;51.506;10.272;2024-01-15T11:19:43;9.33;;;7.03;;
50281;SDS011;36176;51.506;10.272;2024-01-15T11:25:01;8.93;;;7.10;;
50281;SDS011;36176;51.506;10.272;2024-01-15T11:27:42;9.67;;;7.87;;
50281;SDS011;36176;51.506;10.272;2024-01-15T11:30:11;9.30;;;7.33;;
50281;SDS011;36176;51.506;10.272;2024-01-15T11:32:40;8.47;;;7.40;;
50281;SDS011;36176;51.506;10.272;2024-01-15T11:35:07;8.87;;;7.97;;
50281;SDS011;36176;51.506;10.272;2024-01-15T11:40:17;10.30;;;8.07;;
50281;SDS011;36176;51.506;10.272;2024-01-15T11:42:46;9.27;;;7.40;;
50281;SDS011;36176;51.506;10.272;2024-01-15T11:45:15;9.57;;;7.60;;
50281;SDS011;36176;51.506;10.272;2024-01-15T11:50:44;8.60;;;7.63;;
50281;SDS011;36176;51.506;10.272;2024-01-15T11:56:14;9.77;;;7.30;;
50281;SDS011;36176;51.506;10.272;2024-01-15T11:58:42;7.97;;;6.60;;
50281;SDS011;36176;51.506;10.272;2024-01-15T12:01:10;8.07;;;6.57;;
50281;SDS011;36176;51.506;10.272;2024-01-15T12:03:39;8.10;;;7.00;;
50281;SDS011;36176;51.506;10.272;2024-01-15T12:06:06;8.20;;;6.00;;
50281;SDS011;36176;51.506;10.272;2024-01-15T12:08:34;7.20;;;6.20;;
50281;SDS011;36176;51.506;10.272;2024-01-15T12:11:05;8.20;;;6.00;;
50281;SDS011;36176;51.506;10.272;2024-01-15T12:13:37;6.80;;;5.60;;
50281;SDS011;36176;51.506;10.272;2024-01-15T12:16:04;7.00;;;5.33;;
50281;SDS011;36176;51.506;10.272;2024-01-15T12:18:32;6.37;;;5.50;;
50281;SDS011;36176;51.506;10.272;2024-01-15T12:20:59;6.73;;;5.70;;
50281;SDS011;36176;51.506;10.272;2024-01-15T12:23:27;6.00;;;5.40;;
50281;SDS011;36176;51.506;10.272;2024-01-15T12:25:54;8.07;;;6.07;;
50281;SDS011;36176;51.506;10.272;2024-01-15T12:28:21;7.07;;;5.60;;
50281;SDS011;36176;51.506;10.272;2024-01-15T12:30:49;6.53;;;5.70;;
50281;SDS011;36176;51.506;10.272;2024-01-15T12:33:17;7.17;;;5.43;;
50281;SDS011;36176;51.506;10.272;2024-01-15T12:35:45;6.03;;;5.07;;
50281;SDS011;36176;51.506;10.272;2024-01-15T12:38:12;6.27;;;5.17;;
50281;SDS011;36176;51.506;10.272;2024-01-15T12:40:50;6.93;;;5.23;;
50281;SDS011;36176;51.506;10.272;2024-01-15T12:43:17;6.80;;;5.30;;
50281;SDS011;36176;51.506;10.272;2024-01-15T12:45:45;7.17;;;5.40;;
50281;SDS011;36176;51.506;10.272;2024-01-15T12:48:12;6.40;;;5.23;;
50281;SDS011;36176;51.506;10.272;2024-01-15T12:50:40;5.80;;;4.83;;
50281;SDS011;36176;51.506;10.272;2024-01-15T12:53:09;7.07;;;4.83;;
50281;SDS011;36176;51.506;10.272;2024-01-15T12:55:36;6.30;;;4.90;;
50281;SDS011;36176;51.506;10.272;2024-01-15T12:58:03;5.07;;;4.50;;
50281;SDS011;36176;51.506;10.272;2024-01-15T13:00:30;7.17;;;4.90;;
50281;SDS011;36176;51.506;10.272;2024-01-15T13:02:58;6.20;;;4.50;;
50281;SDS011;36176;51.506;10.272;2024-01-15T13:05:26;6.87;;;4.90;;
50281;SDS011;36176;51.506;10.272;2024-01-15T13:07:54;6.40;;;4.97;;
50281;SDS011;36176;51.506;10.272;2024-01-15T13:10:21;9.47;;;7.97;;
50281;SDS011;36176;51.506;10.272;2024-01-15T13:12:52;11.83;;;9.30;;
50281;SDS011;36176;51.506;10.272;2024-01-15T13:15:19;9.60;;;7.60;;
50281;SDS011;36176;51.506;10.272;2024-01-15T13:17:46;8.33;;;6.03;;
50281;SDS011;36176;51.506;10.272;2024-01-15T13:20:13;8.33;;;5.83;;
50281;SDS011;36176;51.506;10.272;2024-01-15T13:22:46;5.60;;;4.17;;
50281;SDS011;36176;51.506;10.272;2024-01-15T13:25:14;6.03;;;4.47;;
50281;SDS011;36176;51.506;10.272;2024-01-15T13:27:41;5.67;;;4.40;;
50281;SDS011;36176;51.506;10.272;2024-01-15T13:30:10;5.07;;;3.60;;
50281;SDS011;36176;51.506;10.272;2024-01-15T13:32:37;5.43;;;4.13;;
50281;SDS011;36176;51.506;10.272;2024-01-15T13:35:05;4.13;;;3.50;;
50281;SDS011;36176;51.506;10.272;2024-01-15T13:37:32;4.67;;;3.90;;
50281;SDS011;36176;51.506;10.272;2024-01-15T13:40:00;4.70;;;3.90;;
50281;SDS011;36176;51.506;10.272;2024-01-15T13:42:27;5.47;;;4.33;;
50281;SDS011;36176;51.506;10.272;2024-01-15T13:44:54;4.47;;;3.73;;
50281;SDS011;36176;51.506;10.272;2024-01-15T13:47:22;5.37;;;4.00;;
50281;SDS011;36176;51.506;10.272;2024-01-15T13:49:49;6.50;;;4.13;;
50281;SDS011;36176;51.506;10.272;2024-01-15T13:52:28;8.00;;;4.07;;
50281;SDS011;36176;51.506;10.272;2024-01-15T13:54:55;4.87;;;4.23;;
50281;SDS011;36176;51.506;10.272;2024-01-15T13:57:22;5.80;;;4.07;;
50281;SDS011;36176;51.506;10.272;2024-01-15T13:59:50;6.90;;;4.53;;
50281;SDS011;36176;51.506;10.272;2024-01-15T14:02:17;5.27;;;4.40;;
50281;SDS011;36176;51.506;10.272;2024-01-15T14:04:48;6.73;;;4.07;;
50281;SDS011;36176;51.506;10.272;2024-01-15T14:07:16;6.77;;;4.50;;
50281;SDS011;36176;51.506;10.272;2024-01-15T14:09:45;5.80;;;4.20;;
50281;SDS011;36176;51.506;10.272;2024-01-15T14:12:12;6.57;;;4.43;;
50281;SDS011;36176;51.506;10.272;2024-01-15T14:14:43;5.43;;;4.10;;
50281;SDS011;36176;51.506;10.272;2024-01-15T14:17:10;6.83;;;4.60;;
50281;SDS011;36176;51.506;10.272;2024-01-15T14:19:37;5.40;;;4.43;;
50281;SDS011;36176;51.506;10.272;2024-01-15T14:22:05;6.50;;;4.70;;
50281;SDS011;36176;51.506;10.272;2024-01-15T14:24:32;5.43;;;4.57;;
50281;SDS011;36176;51.506;10.272;2024-01-15T14:27:00;6.97;;;4.87;;
50281;SDS011;36176;51.506;10.272;2024-01-15T14:29:28;6.93;;;4.63;;
50281;SDS011;36176;51.506;10.272;2024-01-15T14:31:57;6.83;;;4.40;;
50281;SDS011;36176;51.506;10.272;2024-01-15T14:34:25;5.63;;;4.30;;
50281;SDS011;36176;51.506;10.272;2024-01-15T14:36:52;4.53;;;4.00;;
50281;SDS011;36176;51.506;10.272;2024-01-15T14:39:20;6.53;;;4.60;;
50281;SDS011;36176;51.506;10.272;2024-01-15T14:41:49;6.33;;;4.40;;
50281;SDS011;36176;51.506;10.272;2024-01-15T14:44:16;6.00;;;4.50;;